Terminal Aerodrome Forecast
Issued by NWS Wakefield, VA

Home | Current Version | Previous Version | Text Only | Print | Product List | Glossary On
Versions: 1 2 3 4 5 6 7 8 9 10 11 12 13 14 15 16 17 18 19
000
FTUS41 KAKQ 231700
TAFORF
TAF
KORF 231739Z 2318/2418 01010KT P6SM SCT040 BKN150
      TEMPO 2318/2321 BKN030
     FM232100 06008KT P6SM SCT040 BKN120
     FM240800 04017G22KT 6SM BR BKN020 OVC100
     FM241400 05021G27KT 5SM -RA BR BKN018 OVC050=

USA.gov is the U.S. government's official web portal to all federal, state and local government web resources and services.